DLH747 ESGG-EDDH
Flight info
| Callsign | DLH747 |
|---|---|
| Flight time | 0h 48m |
| Altitude | 36000 |
| Route | VADIN DCT ALASA/N0420F350 M852 EKERN T905 BOGMU BOGMU3P |
| Aircraft | A320/M-SDE3FGHIRWY/LB1 |
Departure
| Time | 2026-04-26 19:17 |
|---|---|
| Airport | Göteborg Landvetter Airport (ESGG) |
Arrival
| Time | 2026-04-26 20:05 |
|---|---|
| Airport | Hamburg Helmut Schmidt Airport (EDDH) |
| Time | Latitude | Longitude | Altitude | Speed | Heading |
|---|---|---|---|---|---|
| 2026-04-26 18:31 | 57.67135 | 12.29605 | 516 ft | 0 kts | 116° |
| 2026-04-26 19:04 | 57.67137 | 12.29596 | 516 ft | 4 kts | 116° |
| 2026-04-26 19:04 | 57.67149 | 12.29552 | 516 ft | 4 kts | 114° |
| 2026-04-26 19:04 | 57.67152 | 12.29515 | 516 ft | 4 kts | 44° |
| 2026-04-26 19:05 | 57.67133 | 12.29492 | 516 ft | 0 kts | 26° |
| 2026-04-26 19:11 | 57.67160 | 12.29516 | 516 ft | 7 kts | 26° |
| 2026-04-26 19:11 | 57.67202 | 12.29509 | 516 ft | 8 kts | 313° |
| 2026-04-26 19:11 | 57.67213 | 12.29473 | 516 ft | 0 kts | 301° |
| 2026-04-26 19:11 | 57.67237 | 12.29418 | 516 ft | 10 kts | 320° |
| 2026-04-26 19:12 | 57.67318 | 12.29437 | 516 ft | 12 kts | 26° |
| 2026-04-26 19:12 | 57.67392 | 12.29504 | 516 ft | 11 kts | 26° |
| 2026-04-26 19:12 | 57.67454 | 12.29560 | 516 ft | 14 kts | 27° |
| 2026-04-26 19:12 | 57.67530 | 12.29590 | 516 ft | 3 kts | 342° |
| 2026-04-26 19:13 | 57.67535 | 12.29584 | 516 ft | 0 kts | 329° |
| 2026-04-26 19:15 | 57.67551 | 12.29561 | 516 ft | 17 kts | 315° |
| 2026-04-26 19:15 | 57.67588 | 12.29312 | 516 ft | 24 kts | 263° |
| 2026-04-26 19:15 | 57.67546 | 12.29139 | 516 ft | 9 kts | 218° |
| 2026-04-26 19:16 | 57.67542 | 12.29135 | 516 ft | 0 kts | 211° |
| 2026-04-26 19:17 | 57.67522 | 12.29111 | 516 ft | 24 kts | 211° |
| 2026-04-26 19:17 | 57.67113 | 12.28736 | 514 ft | 103 kts | 206° |
| 2026-04-26 19:17 | 57.66277 | 12.27978 | 526 ft | 159 kts | 206° |
| 2026-04-26 19:17 | 57.65291 | 12.27085 | 1209 ft | 155 kts | 206° |
| 2026-04-26 19:18 | 57.64277 | 12.26166 | 1703 ft | 174 kts | 206° |
| 2026-04-26 19:18 | 57.63121 | 12.25116 | 2095 ft | 196 kts | 206° |
| 2026-04-26 19:18 | 57.61816 | 12.23929 | 2479 ft | 221 kts | 206° |
| 2026-04-26 19:18 | 57.60308 | 12.22958 | 2976 ft | 245 kts | 191° |
| 2026-04-26 19:19 | 57.58577 | 12.22563 | 3801 ft | 255 kts | 184° |
| 2026-04-26 19:19 | 57.56789 | 12.22389 | 4691 ft | 259 kts | 182° |
| 2026-04-26 19:19 | 57.54973 | 12.22250 | 5673 ft | 263 kts | 183° |
| 2026-04-26 19:19 | 57.53132 | 12.22016 | 6640 ft | 267 kts | 185° |
| 2026-04-26 19:20 | 57.51271 | 12.21698 | 7578 ft | 271 kts | 186° |
| 2026-04-26 19:20 | 57.50000 | 12.21452 | 8195 ft | 273 kts | 186° |
| 2026-04-26 19:20 | 57.47459 | 12.20930 | 8804 ft | 278 kts | 186° |
| 2026-04-26 19:20 | 57.45537 | 12.20443 | 8918 ft | 278 kts | 193° |
| 2026-04-26 19:21 | 57.43723 | 12.19228 | 8941 ft | 278 kts | 207° |
| 2026-04-26 19:21 | 57.42133 | 12.17211 | 8943 ft | 278 kts | 222° |
| 2026-04-26 19:21 | 57.40771 | 12.14659 | 8944 ft | 278 kts | 225° |
| 2026-04-26 19:21 | 57.39418 | 12.12096 | 8943 ft | 278 kts | 225° |
| 2026-04-26 19:22 | 57.38054 | 12.09535 | 8943 ft | 278 kts | 225° |
| 2026-04-26 19:22 | 57.36691 | 12.06989 | 8943 ft | 278 kts | 225° |
| 2026-04-26 19:22 | 57.35327 | 12.04441 | 8943 ft | 278 kts | 225° |
| 2026-04-26 19:22 | 57.33966 | 12.01896 | 8943 ft | 278 kts | 225° |
| 2026-04-26 19:23 | 57.32603 | 11.99343 | 8943 ft | 278 kts | 225° |
| 2026-04-26 19:23 | 57.31260 | 11.96833 | 8943 ft | 278 kts | 225° |
| 2026-04-26 19:23 | 57.29895 | 11.94292 | 8943 ft | 278 kts | 225° |
| 2026-04-26 19:23 | 57.28534 | 11.91754 | 8943 ft | 278 kts | 225° |
| 2026-04-26 19:24 | 57.27172 | 11.89213 | 8943 ft | 278 kts | 225° |
| 2026-04-26 19:24 | 57.25809 | 11.86675 | 8943 ft | 278 kts | 225° |
| 2026-04-26 19:24 | 57.23078 | 11.81602 | 8943 ft | 278 kts | 225° |
| 2026-04-26 19:25 | 57.21711 | 11.79062 | 8943 ft | 278 kts | 225° |
| 2026-04-26 19:25 | 57.21250 | 11.78209 | 8945 ft | 279 kts | 225° |
| 2026-04-26 19:25 | 57.18945 | 11.73945 | 10173 ft | 288 kts | 225° |
| 2026-04-26 19:25 | 57.17468 | 11.71219 | 10544 ft | 311 kts | 224° |
| 2026-04-26 19:26 | 57.15914 | 11.68355 | 11214 ft | 320 kts | 225° |
| 2026-04-26 19:26 | 57.14239 | 11.65601 | 12008 ft | 325 kts | 217° |
| 2026-04-26 19:26 | 57.12327 | 11.63349 | 12802 ft | 329 kts | 207° |
| 2026-04-26 19:26 | 57.10225 | 11.61624 | 13579 ft | 333 kts | 202° |
| 2026-04-26 19:27 | 57.08077 | 11.59987 | 14331 ft | 336 kts | 202° |
| 2026-04-26 19:27 | 57.05904 | 11.58328 | 15064 ft | 340 kts | 202° |
| 2026-04-26 19:27 | 57.03736 | 11.56669 | 15766 ft | 344 kts | 202° |
| 2026-04-26 19:27 | 57.01486 | 11.54944 | 16467 ft | 348 kts | 202° |
| 2026-04-26 19:28 | 56.99268 | 11.53249 | 17129 ft | 351 kts | 202° |
| 2026-04-26 19:28 | 56.97000 | 11.51522 | 17790 ft | 355 kts | 202° |
| 2026-04-26 19:28 | 56.94706 | 11.49773 | 18437 ft | 358 kts | 202° |
| 2026-04-26 19:28 | 56.92389 | 11.48005 | 19060 ft | 362 kts | 202° |
| 2026-04-26 19:29 | 56.90053 | 11.46222 | 19684 ft | 366 kts | 202° |
| 2026-04-26 19:29 | 56.87693 | 11.44425 | 20302 ft | 369 kts | 202° |
| 2026-04-26 19:29 | 56.85307 | 11.42614 | 20897 ft | 372 kts | 202° |
| 2026-04-26 19:29 | 56.82909 | 11.40798 | 21482 ft | 376 kts | 202° |
| 2026-04-26 19:30 | 56.80479 | 11.38965 | 22057 ft | 379 kts | 202° |
| 2026-04-26 19:30 | 56.78033 | 11.37121 | 22617 ft | 382 kts | 202° |
| 2026-04-26 19:30 | 56.75563 | 11.35261 | 23166 ft | 386 kts | 202° |
| 2026-04-26 19:30 | 56.74724 | 11.34628 | 23349 ft | 387 kts | 202° |
| 2026-04-26 19:31 | 56.70560 | 11.31482 | 24217 ft | 392 kts | 202° |
| 2026-04-26 19:31 | 56.68031 | 11.29577 | 24713 ft | 395 kts | 202° |
| 2026-04-26 19:31 | 56.65479 | 11.27663 | 25193 ft | 398 kts | 202° |
| 2026-04-26 19:31 | 56.62907 | 11.25735 | 25658 ft | 401 kts | 202° |
| 2026-04-26 19:32 | 56.60349 | 11.23819 | 26100 ft | 404 kts | 202° |
| 2026-04-26 19:32 | 56.57740 | 11.21868 | 26534 ft | 407 kts | 202° |
| 2026-04-26 19:32 | 56.55117 | 11.19914 | 26949 ft | 409 kts | 202° |
| 2026-04-26 19:32 | 56.52471 | 11.17946 | 27358 ft | 412 kts | 202° |
| 2026-04-26 19:33 | 56.49812 | 11.15972 | 27757 ft | 414 kts | 202° |
| 2026-04-26 19:33 | 56.47136 | 11.13989 | 28137 ft | 417 kts | 202° |
| 2026-04-26 19:33 | 56.44446 | 11.12000 | 28510 ft | 419 kts | 202° |
| 2026-04-26 19:33 | 56.41735 | 11.09995 | 28882 ft | 422 kts | 202° |
| 2026-04-26 19:34 | 56.39930 | 11.08656 | 29118 ft | 424 kts | 202° |
| 2026-04-26 19:34 | 56.37198 | 11.06631 | 29464 ft | 426 kts | 202° |
| 2026-04-26 19:34 | 56.34452 | 11.04602 | 29801 ft | 428 kts | 202° |
| 2026-04-26 19:34 | 56.31683 | 11.02564 | 30134 ft | 430 kts | 202° |
| 2026-04-26 19:35 | 56.28902 | 11.00524 | 30450 ft | 433 kts | 202° |
| 2026-04-26 19:35 | 56.26108 | 10.98476 | 30759 ft | 435 kts | 202° |
| 2026-04-26 19:35 | 56.23299 | 10.96419 | 31065 ft | 437 kts | 202° |
| 2026-04-26 19:35 | 56.20478 | 10.94352 | 31341 ft | 439 kts | 202° |
| 2026-04-26 19:36 | 56.17646 | 10.92283 | 31620 ft | 440 kts | 202° |
| 2026-04-26 19:36 | 56.15768 | 10.90913 | 31872 ft | 440 kts | 202° |
| 2026-04-26 19:36 | 56.11979 | 10.88155 | 32383 ft | 438 kts | 202° |
| 2026-04-26 19:36 | 56.09158 | 10.86106 | 32755 ft | 438 kts | 202° |
| 2026-04-26 19:37 | 56.06332 | 10.84062 | 33120 ft | 437 kts | 202° |
| 2026-04-26 19:37 | 56.03514 | 10.82025 | 33484 ft | 436 kts | 202° |
| 2026-04-26 19:37 | 56.00700 | 10.79987 | 33847 ft | 435 kts | 202° |
| 2026-04-26 19:37 | 55.97926 | 10.77979 | 34201 ft | 435 kts | 202° |
| 2026-04-26 19:38 | 55.95086 | 10.75928 | 34548 ft | 434 kts | 202° |
| 2026-04-26 19:38 | 55.92292 | 10.73916 | 34878 ft | 433 kts | 202° |
| 2026-04-26 19:38 | 55.89496 | 10.71906 | 35194 ft | 433 kts | 202° |
| 2026-04-26 19:38 | 55.86743 | 10.69930 | 35495 ft | 432 kts | 202° |
| 2026-04-26 19:39 | 55.83955 | 10.67929 | 35794 ft | 431 kts | 202° |
| 2026-04-26 19:39 | 55.81176 | 10.65940 | 35921 ft | 430 kts | 202° |
| 2026-04-26 19:39 | 55.75689 | 10.62029 | 35943 ft | 422 kts | 202° |
| 2026-04-26 19:40 | 55.70252 | 10.58171 | 35943 ft | 420 kts | 202° |
| 2026-04-26 19:40 | 55.64825 | 10.54317 | 35943 ft | 420 kts | 202° |
| 2026-04-26 19:41 | 55.59390 | 10.50468 | 35943 ft | 420 kts | 201° |
| 2026-04-26 19:41 | 55.54885 | 10.47285 | 35942 ft | 420 kts | 201° |
| 2026-04-26 19:42 | 55.48534 | 10.42817 | 35939 ft | 420 kts | 201° |
| 2026-04-26 19:42 | 55.43118 | 10.39020 | 35275 ft | 419 kts | 201° |
| 2026-04-26 19:43 | 55.40415 | 10.37125 | 34736 ft | 417 kts | 201° |
| 2026-04-26 19:43 | 55.37722 | 10.35246 | 34210 ft | 415 kts | 201° |
| 2026-04-26 19:43 | 55.35049 | 10.33380 | 33691 ft | 412 kts | 201° |
| 2026-04-26 19:43 | 55.32394 | 10.31531 | 33164 ft | 410 kts | 201° |
| 2026-04-26 19:44 | 55.29750 | 10.29696 | 32638 ft | 407 kts | 201° |
| 2026-04-26 19:44 | 55.27154 | 10.27896 | 32130 ft | 405 kts | 201° |
| 2026-04-26 19:44 | 55.24543 | 10.26086 | 31592 ft | 403 kts | 201° |
| 2026-04-26 19:44 | 55.21938 | 10.24282 | 31070 ft | 401 kts | 201° |
| 2026-04-26 19:45 | 55.19352 | 10.22495 | 30538 ft | 398 kts | 201° |
| 2026-04-26 19:45 | 55.16781 | 10.20721 | 30019 ft | 396 kts | 201° |
| 2026-04-26 19:45 | 55.14219 | 10.18953 | 29489 ft | 394 kts | 201° |
| 2026-04-26 19:45 | 55.11672 | 10.17195 | 28976 ft | 392 kts | 201° |
| 2026-04-26 19:46 | 55.09138 | 10.15451 | 28436 ft | 390 kts | 201° |
| 2026-04-26 19:46 | 55.06605 | 10.13747 | 27918 ft | 389 kts | 198° |
| 2026-04-26 19:46 | 55.03963 | 10.12939 | 27382 ft | 386 kts | 180° |
| 2026-04-26 19:46 | 55.01301 | 10.13404 | 26868 ft | 385 kts | 171° |
| 2026-04-26 19:47 | 54.98664 | 10.14149 | 26337 ft | 383 kts | 171° |
| 2026-04-26 19:47 | 54.96921 | 10.14653 | 25984 ft | 382 kts | 171° |
| 2026-04-26 19:47 | 54.93423 | 10.15664 | 25286 ft | 380 kts | 171° |
| 2026-04-26 19:47 | 54.90819 | 10.16416 | 24756 ft | 378 kts | 171° |
| 2026-04-26 19:48 | 54.88232 | 10.17161 | 24229 ft | 376 kts | 171° |
| 2026-04-26 19:48 | 54.85654 | 10.17902 | 23713 ft | 374 kts | 171° |
| 2026-04-26 19:48 | 54.83100 | 10.18633 | 23397 ft | 366 kts | 171° |
| 2026-04-26 19:48 | 54.80628 | 10.19332 | 23257 ft | 353 kts | 171° |
| 2026-04-26 19:49 | 54.78230 | 10.20007 | 22967 ft | 346 kts | 171° |
| 2026-04-26 19:49 | 54.75862 | 10.20677 | 22570 ft | 343 kts | 171° |
| 2026-04-26 19:49 | 54.73516 | 10.21346 | 22155 ft | 340 kts | 171° |
| 2026-04-26 19:49 | 54.71185 | 10.22008 | 21741 ft | 338 kts | 171° |
| 2026-04-26 19:50 | 54.68874 | 10.22658 | 21328 ft | 336 kts | 171° |
| 2026-04-26 19:50 | 54.66577 | 10.23305 | 20929 ft | 333 kts | 171° |
| 2026-04-26 19:50 | 54.64296 | 10.23946 | 20520 ft | 331 kts | 171° |
| 2026-04-26 19:50 | 54.62025 | 10.24587 | 20106 ft | 329 kts | 171° |
| 2026-04-26 19:51 | 54.59798 | 10.25217 | 19725 ft | 327 kts | 171° |
| 2026-04-26 19:51 | 54.57553 | 10.25854 | 19188 ft | 329 kts | 171° |
| 2026-04-26 19:51 | 54.55246 | 10.26504 | 18372 ft | 341 kts | 171° |
| 2026-04-26 19:51 | 54.52901 | 10.27158 | 17843 ft | 342 kts | 171° |
| 2026-04-26 19:52 | 54.50556 | 10.27810 | 17391 ft | 340 kts | 171° |
| 2026-04-26 19:52 | 54.48227 | 10.28457 | 16952 ft | 338 kts | 171° |
| 2026-04-26 19:52 | 54.45912 | 10.29103 | 16532 ft | 336 kts | 171° |
| 2026-04-26 19:52 | 54.43616 | 10.29749 | 16116 ft | 334 kts | 171° |
| 2026-04-26 19:53 | 54.41331 | 10.30395 | 15701 ft | 331 kts | 171° |
| 2026-04-26 19:53 | 54.39065 | 10.31032 | 15286 ft | 329 kts | 171° |
| 2026-04-26 19:53 | 54.36808 | 10.31661 | 14856 ft | 327 kts | 171° |
| 2026-04-26 19:53 | 54.34566 | 10.32283 | 14458 ft | 325 kts | 171° |
| 2026-04-26 19:54 | 54.32341 | 10.32897 | 14043 ft | 323 kts | 171° |
| 2026-04-26 19:54 | 54.30127 | 10.33507 | 13632 ft | 321 kts | 171° |
| 2026-04-26 19:54 | 54.27926 | 10.34111 | 13226 ft | 319 kts | 171° |
| 2026-04-26 19:54 | 54.25739 | 10.34713 | 12798 ft | 317 kts | 171° |
| 2026-04-26 19:55 | 54.23567 | 10.35313 | 12377 ft | 315 kts | 171° |
| 2026-04-26 19:55 | 54.21408 | 10.35909 | 11955 ft | 313 kts | 171° |
| 2026-04-26 19:55 | 54.19265 | 10.36505 | 11532 ft | 311 kts | 171° |
| 2026-04-26 19:55 | 54.17133 | 10.37094 | 11109 ft | 309 kts | 171° |
| 2026-04-26 19:56 | 54.15016 | 10.37673 | 10674 ft | 307 kts | 171° |
| 2026-04-26 19:56 | 54.12910 | 10.38238 | 10250 ft | 305 kts | 173° |
| 2026-04-26 19:56 | 54.10800 | 10.38272 | 9820 ft | 303 kts | 184° |
| 2026-04-26 19:56 | 54.08702 | 10.38029 | 9381 ft | 301 kts | 184° |
| 2026-04-26 19:57 | 54.06648 | 10.37769 | 8954 ft | 299 kts | 184° |
| 2026-04-26 19:57 | 54.04551 | 10.37502 | 8499 ft | 297 kts | 184° |
| 2026-04-26 19:57 | 54.02526 | 10.37243 | 8050 ft | 295 kts | 184° |
| 2026-04-26 19:57 | 54.00459 | 10.36980 | 7598 ft | 293 kts | 184° |
| 2026-04-26 19:58 | 53.98458 | 10.36725 | 7138 ft | 291 kts | 184° |
| 2026-04-26 19:58 | 53.96447 | 10.36468 | 6692 ft | 289 kts | 184° |
| 2026-04-26 19:58 | 53.94472 | 10.36217 | 6506 ft | 277 kts | 184° |
| 2026-04-26 19:58 | 53.92589 | 10.35979 | 6277 ft | 268 kts | 184° |
| 2026-04-26 19:59 | 53.90742 | 10.35745 | 5901 ft | 265 kts | 184° |
| 2026-04-26 19:59 | 53.88905 | 10.35514 | 5488 ft | 263 kts | 184° |
| 2026-04-26 19:59 | 53.87086 | 10.35284 | 5071 ft | 261 kts | 184° |
| 2026-04-26 19:59 | 53.85278 | 10.35057 | 4653 ft | 260 kts | 184° |
| 2026-04-26 20:00 | 53.83477 | 10.34830 | 4230 ft | 258 kts | 184° |
| 2026-04-26 20:00 | 53.81704 | 10.34458 | 3809 ft | 256 kts | 195° |
| 2026-04-26 20:00 | 53.80108 | 10.33223 | 3191 ft | 250 kts | 215° |
| 2026-04-26 20:00 | 53.78890 | 10.31157 | 2764 ft | 250 kts | 230° |
| 2026-04-26 20:01 | 53.77832 | 10.28983 | 2647 ft | 229 kts | 230° |
| 2026-04-26 20:01 | 53.76827 | 10.26928 | 2650 ft | 225 kts | 230° |
| 2026-04-26 20:01 | 53.75834 | 10.24895 | 2651 ft | 224 kts | 230° |
| 2026-04-26 20:01 | 53.74844 | 10.22869 | 2657 ft | 223 kts | 230° |
| 2026-04-26 20:02 | 53.73853 | 10.20842 | 2661 ft | 223 kts | 230° |
| 2026-04-26 20:02 | 53.72865 | 10.18824 | 2651 ft | 223 kts | 230° |
| 2026-04-26 20:02 | 53.71877 | 10.16807 | 2527 ft | 223 kts | 230° |
| 2026-04-26 20:02 | 53.71221 | 10.15467 | 2367 ft | 222 kts | 230° |
| 2026-04-26 20:03 | 53.69943 | 10.12861 | 1995 ft | 209 kts | 230° |
| 2026-04-26 20:03 | 53.69048 | 10.11038 | 1729 ft | 196 kts | 230° |
| 2026-04-26 20:03 | 53.68204 | 10.09319 | 1470 ft | 185 kts | 230° |
| 2026-04-26 20:03 | 53.67414 | 10.07713 | 1260 ft | 171 kts | 230° |
| 2026-04-26 20:04 | 53.66699 | 10.06259 | 1034 ft | 152 kts | 229° |
| 2026-04-26 20:04 | 53.66049 | 10.04939 | 827 ft | 143 kts | 229° |
| 2026-04-26 20:04 | 53.65422 | 10.03665 | 645 ft | 139 kts | 230° |
| 2026-04-26 20:04 | 53.64809 | 10.02415 | 471 ft | 138 kts | 230° |
| 2026-04-26 20:05 | 53.64203 | 10.01175 | 289 ft | 138 kts | 230° |
| 2026-04-26 20:05 | 53.63593 | 9.99934 | 104 ft | 137 kts | 229° |
| 2026-04-26 20:05 | 53.63048 | 9.98853 | 51 ft | 85 kts | 231° |
| 2026-04-26 20:05 | 53.62836 | 9.98423 | 53 ft | 26 kts | 231° |
| 2026-04-26 20:06 | 53.62713 | 9.98400 | 51 ft | 12 kts | 146° |
| 2026-04-26 20:06 | 53.62691 | 9.98428 | 52 ft | 0 kts | 142° |
| 2026-04-26 20:06 | 53.62690 | 9.98429 | 52 ft | 0 kts | 142° |
| 2026-04-26 20:08 | 53.62690 | 9.98430 | 52 ft | 1 kts | 142° |
| 2026-04-26 20:08 | 53.62675 | 9.98499 | 51 ft | 17 kts | 83° |
| 2026-04-26 20:08 | 53.62760 | 9.98695 | 51 ft | 24 kts | 50° |
| 2026-04-26 20:09 | 53.62869 | 9.98916 | 51 ft | 24 kts | 50° |
| 2026-04-26 20:09 | 53.62971 | 9.99122 | 51 ft | 21 kts | 50° |
| 2026-04-26 20:09 | 53.63054 | 9.99296 | 51 ft | 15 kts | 52° |
| 2026-04-26 20:09 | 53.63079 | 9.99357 | 51 ft | 0 kts | 54° |
| 2026-04-26 20:11 | 53.63106 | 9.99420 | 52 ft | 18 kts | 56° |
| 2026-04-26 20:11 | 53.63172 | 9.99571 | 51 ft | 13 kts | 51° |
| 2026-04-26 20:11 | 53.63224 | 9.99676 | 51 ft | 11 kts | 49° |
| 2026-04-26 20:12 | 53.63378 | 9.99962 | 51 ft | 17 kts | 50° |
| 2026-04-26 20:12 | 53.63426 | 10.00085 | 51 ft | 11 kts | 79° |
| 2026-04-26 20:12 | 53.63409 | 10.00167 | 50 ft | 4 kts | 122° |
| 2026-04-26 20:12 | 53.63387 | 10.00209 | 51 ft | 5 kts | 141° |
| 2026-04-26 20:13 | 53.63326 | 10.00231 | 51 ft | 8 kts | 175° |
| 2026-04-26 20:13 | 53.63309 | 10.00234 | 51 ft | 0 kts | 174° |
| 2026-04-26 20:14 | 53.63283 | 10.00254 | 49 ft | 9 kts | 131° |
| 2026-04-26 20:14 | 53.63279 | 10.00328 | 51 ft | 6 kts | 86° |
| 2026-04-26 20:14 | 53.63281 | 10.00365 | 51 ft | 1 kts | 86° |
| 2026-04-26 20:14 | 53.63281 | 10.00369 | 51 ft | 0 kts | 85° |